createdAt,value
2017-11-30T00:01:37.931Z,0.40
2017-11-30T00:04:06.687Z,0.30
2017-11-30T00:06:34.804Z,0.30
2017-11-30T00:09:03.647Z,0.30
2017-11-30T00:11:31.511Z,0.30
2017-11-30T00:13:59.995Z,0.40
2017-11-30T00:16:28.270Z,0.40
2017-11-30T00:18:56.176Z,0.30
2017-11-30T00:21:25.465Z,0.30
2017-11-30T00:23:53.404Z,0.30
2017-11-30T00:26:21.373Z,0.30
2017-11-30T00:28:49.750Z,0.30
2017-11-30T00:31:17.615Z,0.30
2017-11-30T00:33:45.614Z,0.30
2017-11-30T00:36:13.467Z,0.40
2017-11-30T00:38:41.606Z,0.40
2017-11-30T00:41:09.643Z,0.30
2017-11-30T00:43:38.385Z,0.30
2017-11-30T00:46:06.378Z,0.30
2017-11-30T00:48:34.287Z,0.30
2017-11-30T00:51:02.288Z,0.30
2017-11-30T00:53:30.153Z,0.30
2017-11-30T00:55:57.940Z,0.30
2017-11-30T00:58:26.057Z,0.30
2017-11-30T01:00:53.958Z,0.30
2017-11-30T01:03:21.984Z,0.30
2017-11-30T01:05:50.921Z,0.30
2017-11-30T01:08:18.896Z,0.20
2017-11-30T01:10:46.785Z,0.30
2017-11-30T01:13:15.541Z,0.30
2017-11-30T01:15:43.509Z,0.30
2017-11-30T01:18:11.508Z,0.30
2017-11-30T01:20:39.376Z,0.30
2017-11-30T01:23:07.350Z,0.30
2017-11-30T01:25:36.207Z,0.30
2017-11-30T01:28:04.217Z,0.30
2017-11-30T01:30:32.970Z,0.30
2017-11-30T01:33:00.983Z,0.30
2017-11-30T01:35:29.718Z,0.30
2017-11-30T01:37:57.638Z,0.30
2017-11-30T01:40:26.473Z,0.30
2017-11-30T01:42:54.375Z,0.30
2017-11-30T01:45:23.178Z,0.30
2017-11-30T01:47:52.940Z,0.30
2017-11-30T01:50:20.801Z,0.30
2017-11-30T01:52:48.774Z,0.30
2017-11-30T01:55:16.744Z,0.30
2017-11-30T01:57:44.640Z,0.30
2017-11-30T02:00:12.682Z,0.30
2017-11-30T02:02:40.864Z,0.30
2017-11-30T02:05:08.749Z,0.30
2017-11-30T02:07:37.788Z,0.30
2017-11-30T02:10:05.624Z,0.20
2017-11-30T02:12:34.385Z,0.30
2017-11-30T02:15:02.337Z,0.20
2017-11-30T02:17:30.234Z,0.20
2017-11-30T02:19:58.208Z,0.30
2017-11-30T02:22:26.159Z,0.20
2017-11-30T02:24:54.030Z,0.30
2017-11-30T02:27:23.761Z,0.20
2017-11-30T02:29:52.441Z,0.20
2017-11-30T02:32:21.112Z,0.20
2017-11-30T02:34:49.109Z,0.20
2017-11-30T02:37:17.949Z,0.20
2017-11-30T02:39:45.842Z,0.20
2017-11-30T02:42:14.601Z,0.20
2017-11-30T02:44:42.593Z,0.20
2017-11-30T02:47:11.354Z,0.30
2017-11-30T02:49:39.329Z,0.20
2017-11-30T02:52:07.401Z,0.20
2017-11-30T02:54:35.396Z,0.20
2017-11-30T02:57:03.533Z,0.30
2017-11-30T02:59:31.531Z,0.30
2017-11-30T03:01:59.401Z,0.30
2017-11-30T03:04:27.372Z,0.30
2017-11-30T03:06:55.523Z,0.30
2017-11-30T03:09:23.521Z,0.30
2017-11-30T03:11:52.196Z,0.30
2017-11-30T03:14:20.065Z,0.30
2017-11-30T03:16:49.473Z,0.30
2017-11-30T03:19:18.635Z,0.30
2017-11-30T03:21:46.461Z,0.20
2017-11-30T03:24:14.572Z,0.30
2017-11-30T03:26:42.494Z,0.30
2017-11-30T03:29:10.515Z,0.40
2017-11-30T03:31:38.481Z,0.40
2017-11-30T03:34:06.590Z,0.40
2017-11-30T03:36:35.345Z,0.30
2017-11-30T03:39:03.208Z,0.30
2017-11-30T03:41:31.104Z,0.40
2017-11-30T03:43:59.855Z,0.30
2017-11-30T03:46:27.723Z,0.30
2017-11-30T03:48:55.620Z,0.30
2017-11-30T03:51:23.661Z,0.40
2017-11-30T03:53:51.576Z,0.40
2017-11-30T03:56:20.212Z,0.40
2017-11-30T03:58:48.107Z,0.40
2017-11-30T04:01:16.898Z,0.30
2017-11-30T04:03:45.074Z,0.30
2017-11-30T04:06:13.772Z,0.40
2017-11-30T04:08:42.501Z,0.40
2017-11-30T04:11:10.588Z,0.40
2017-11-30T04:13:38.592Z,0.40
2017-11-30T04:16:07.372Z,0.50
2017-11-30T04:18:36.067Z,0.60
2017-11-30T04:21:04.820Z,0.50
2017-11-30T04:23:33.527Z,0.50
2017-11-30T04:26:01.469Z,0.50
2017-11-30T04:28:29.368Z,0.50
2017-11-30T04:30:57.411Z,0.40
2017-11-30T04:33:25.377Z,0.40
2017-11-30T04:35:53.271Z,0.40
2017-11-30T04:38:22.050Z,0.30
2017-11-30T04:40:50.823Z,0.30
2017-11-30T04:43:18.706Z,0.30
2017-11-30T04:45:48.129Z,0.30
2017-11-30T04:48:16.874Z,0.30
2017-11-30T04:50:44.780Z,0.30
2017-11-30T04:53:13.445Z,0.20
2017-11-30T04:55:41.314Z,0.20
2017-11-30T04:58:09.258Z,0.20
2017-11-30T05:00:37.045Z,0.20
2017-11-30T05:03:05.021Z,0.30
2017-11-30T05:05:32.962Z,0.20
2017-11-30T05:08:00.928Z,0.30
2017-11-30T05:10:29.003Z,0.30
2017-11-30T05:12:57.092Z,0.20
2017-11-30T05:15:25.065Z,0.20
2017-11-30T05:17:53.008Z,0.20
2017-11-30T05:20:20.977Z,0.20
2017-11-30T05:22:48.946Z,0.20
2017-11-30T05:25:17.333Z,0.20
2017-11-30T05:27:45.220Z,0.20
2017-11-30T05:30:13.904Z,0.20
2017-11-30T05:32:41.960Z,0.20
2017-11-30T05:35:09.914Z,0.20
2017-11-30T05:37:39.109Z,0.20
2017-11-30T05:40:07.046Z,0.20
2017-11-30T05:42:34.983Z,0.20
2017-11-30T05:45:03.651Z,0.20
2017-11-30T05:47:31.613Z,0.20
2017-11-30T05:49:59.931Z,0.30
2017-11-30T05:52:27.846Z,0.20
2017-11-30T05:54:55.919Z,0.20
2017-11-30T05:57:23.935Z,0.20
2017-11-30T05:59:53.389Z,0.30
2017-11-30T06:02:21.361Z,0.30
2017-11-30T06:04:49.369Z,0.30
2017-11-30T06:07:17.306Z,0.30
2017-11-30T06:09:45.199Z,0.30
2017-11-30T06:12:14.155Z,0.20
2017-11-30T06:14:42.175Z,0.20
2017-11-30T06:17:11.213Z,0.30
2017-11-30T06:19:39.398Z,0.30
2017-11-30T06:22:07.405Z,0.30
2017-11-30T06:24:36.155Z,0.40
2017-11-30T06:27:04.020Z,0.40
2017-11-30T06:29:32.013Z,0.40
2017-11-30T06:31:59.951Z,0.40
2017-11-30T06:34:27.945Z,0.40
2017-11-30T06:36:56.479Z,0.30
2017-11-30T06:39:24.498Z,0.40
2017-11-30T06:41:52.723Z,0.40
2017-11-30T06:44:20.717Z,0.40
2017-11-30T06:46:48.889Z,0.40
2017-11-30T06:49:16.962Z,0.40
2017-11-30T06:51:45.813Z,0.30
2017-11-30T06:54:13.750Z,0.30
2017-11-30T06:56:43.453Z,0.40
2017-11-30T06:59:11.261Z,0.40
2017-11-30T07:01:40.082Z,0.30
2017-11-30T07:04:08.794Z,0.30
2017-11-30T07:06:36.744Z,0.40
2017-11-30T07:09:04.600Z,0.40
2017-11-30T07:11:32.424Z,0.40
2017-11-30T07:14:01.174Z,0.40
2017-11-30T07:16:29.052Z,0.40
2017-11-30T07:18:57.534Z,0.40
2017-11-30T07:21:26.204Z,0.40
2017-11-30T07:23:54.080Z,0.40
2017-11-30T07:26:22.056Z,0.50
2017-11-30T07:28:49.912Z,0.50
2017-11-30T07:31:17.772Z,0.50
2017-11-30T07:33:45.651Z,0.50
2017-11-30T07:36:13.492Z,0.50
2017-11-30T07:38:41.382Z,0.50
2017-11-30T07:41:09.176Z,0.50
2017-11-30T07:43:38.044Z,0.50
2017-11-30T07:46:05.895Z,0.50
2017-11-30T07:48:33.734Z,0.50
2017-11-30T07:51:01.599Z,0.50
2017-11-30T07:53:29.407Z,0.40
2017-11-30T07:55:58.111Z,0.50
2017-11-30T07:58:26.645Z,0.50
2017-11-30T08:00:54.442Z,0.50
2017-11-30T08:03:23.724Z,0.60
2017-11-30T08:05:51.588Z,0.60
2017-11-30T08:08:19.435Z,0.60
2017-11-30T08:10:47.326Z,0.60
2017-11-30T08:13:15.179Z,0.60
2017-11-30T08:15:43.062Z,0.70
2017-11-30T08:18:10.916Z,0.70
2017-11-30T08:20:38.761Z,0.80
2017-11-30T08:23:06.760Z,0.80
2017-11-30T08:25:34.600Z,0.80
2017-11-30T08:28:02.423Z,0.80
2017-11-30T08:30:30.451Z,0.80
2017-11-30T08:32:58.299Z,0.90
2017-11-30T08:35:26.186Z,0.90
2017-11-30T08:37:55.084Z,0.90
2017-11-30T08:40:23.045Z,0.90
2017-11-30T08:42:50.894Z,0.90
2017-11-30T08:45:18.859Z,0.90
2017-11-30T08:47:46.648Z,0.90
2017-11-30T08:50:14.510Z,0.90
2017-11-30T08:52:42.405Z,0.90
2017-11-30T08:55:11.351Z,1.00
2017-11-30T08:57:39.214Z,1.00
2017-11-30T09:00:07.066Z,1.00
2017-11-30T09:02:34.967Z,1.00
2017-11-30T09:05:02.916Z,1.10
2017-11-30T09:07:30.749Z,1.20
2017-11-30T09:09:59.437Z,1.20
2017-11-30T09:12:27.265Z,1.30
2017-11-30T09:14:55.127Z,1.30
2017-11-30T09:17:22.888Z,1.30
2017-11-30T09:19:57.604Z,1.40
2017-11-30T09:22:25.579Z,1.40
2017-11-30T09:24:53.445Z,1.40
2017-11-30T09:27:21.397Z,1.50
2017-11-30T09:29:49.317Z,1.60
2017-11-30T09:32:17.982Z,1.80
2017-11-30T09:34:45.813Z,1.70
2017-11-30T09:37:13.600Z,1.80
2017-11-30T09:39:41.464Z,1.80
2017-11-30T09:42:09.328Z,1.80
2017-11-30T09:44:37.938Z,1.80
2017-11-30T09:47:07.615Z,1.90
2017-11-30T09:49:35.989Z,1.90
2017-11-30T09:52:04.063Z,1.90
2017-11-30T09:54:32.129Z,2.00
2017-11-30T09:57:00.013Z,2.10
2017-11-30T09:59:28.482Z,2.00
2017-11-30T10:01:56.334Z,2.00
2017-11-30T10:04:24.178Z,1.90
2017-11-30T10:06:52.023Z,1.90
2017-11-30T10:09:19.933Z,1.90
2017-11-30T10:11:47.697Z,1.90
2017-11-30T10:14:15.528Z,2.00
2017-11-30T10:16:43.456Z,2.00
2017-11-30T10:19:11.227Z,2.00
2017-11-30T10:21:39.085Z,1.90
2017-11-30T10:24:06.939Z,1.90
2017-11-30T10:26:34.819Z,1.90
2017-11-30T10:29:02.687Z,1.90
2017-11-30T10:31:30.456Z,1.90
2017-11-30T10:33:58.290Z,1.80
2017-11-30T10:36:26.048Z,1.80
2017-11-30T10:38:53.804Z,1.80
2017-11-30T10:41:21.691Z,1.90
2017-11-30T10:43:49.475Z,1.90
2017-11-30T10:46:17.418Z,1.90
2017-11-30T10:48:45.325Z,2.00
2017-11-30T10:51:13.977Z,2.30
2017-11-30T10:53:41.853Z,2.30
2017-11-30T10:56:09.732Z,2.40
2017-11-30T10:58:37.648Z,2.60
2017-11-30T11:01:05.535Z,2.70
2017-11-30T11:03:33.432Z,2.70
2017-11-30T11:06:01.985Z,2.70
2017-11-30T11:08:29.955Z,2.70
2017-11-30T11:10:57.952Z,2.70
2017-11-30T11:13:25.889Z,2.70
2017-11-30T11:15:53.884Z,2.60
2017-11-30T11:18:22.612Z,2.60
2017-11-30T11:20:50.514Z,2.60
2017-11-30T11:23:18.380Z,2.50
2017-11-30T11:25:46.261Z,2.50
2017-11-30T11:28:14.029Z,2.40
2017-11-30T11:30:41.900Z,2.40
2017-11-30T11:33:09.766Z,2.30
2017-11-30T11:35:37.631Z,2.20
2017-11-30T11:38:05.612Z,2.20
2017-11-30T11:40:33.655Z,2.20
2017-11-30T11:43:01.841Z,2.20
2017-11-30T11:45:31.248Z,2.00
2017-11-30T11:48:00.114Z,2.00
2017-11-30T11:50:28.169Z,2.00
2017-11-30T11:52:56.258Z,2.00
2017-11-30T11:55:24.256Z,2.00
2017-11-30T11:57:52.641Z,2.00
2017-11-30T12:00:21.740Z,1.90
2017-11-30T12:02:53.130Z,1.90
2017-11-30T12:05:21.118Z,1.90
2017-11-30T12:07:49.411Z,1.90
2017-11-30T12:10:17.317Z,2.00
2017-11-30T12:12:46.196Z,2.00
2017-11-30T12:15:15.888Z,2.10
2017-11-30T12:17:43.947Z,2.10
2017-11-30T12:20:11.927Z,2.10
2017-11-30T12:22:39.945Z,2.10
2017-11-30T12:25:07.861Z,2.20
2017-11-30T12:27:35.805Z,2.20
2017-11-30T12:30:05.068Z,2.20
2017-11-30T12:32:33.395Z,2.20
2017-11-30T12:35:01.361Z,2.20
2017-11-30T12:37:29.261Z,2.20
2017-11-30T12:39:58.346Z,2.10
2017-11-30T12:42:26.306Z,2.10
2017-11-30T12:44:54.180Z,2.10
2017-11-30T12:47:22.969Z,2.10
2017-11-30T12:49:51.756Z,2.10
2017-11-30T12:52:20.332Z,2.00
2017-11-30T12:54:48.349Z,2.00
2017-11-30T12:57:16.264Z,2.00
2017-11-30T12:59:44.767Z,2.00
2017-11-30T13:02:13.333Z,2.10
2017-11-30T13:04:41.210Z,2.10
2017-11-30T13:07:09.283Z,2.10
2017-11-30T13:09:37.249Z,2.10
2017-11-30T13:12:05.387Z,2.00
2017-11-30T13:14:34.101Z,2.10
2017-11-30T13:17:01.910Z,2.00
2017-11-30T13:19:29.822Z,2.00
2017-11-30T13:21:57.673Z,2.00
2017-11-30T13:24:25.746Z,2.00
2017-11-30T13:26:53.730Z,2.10
2017-11-30T13:29:21.575Z,2.10
2017-11-30T13:31:49.375Z,2.00
2017-11-30T13:34:17.249Z,2.00
2017-11-30T13:36:45.996Z,1.90
2017-11-30T13:39:14.199Z,1.90
2017-11-30T13:41:42.018Z,1.90
2017-11-30T13:44:10.951Z,1.90
2017-11-30T13:46:38.734Z,1.90
2017-11-30T13:49:07.294Z,1.90
2017-11-30T13:51:35.358Z,1.80
2017-11-30T13:54:04.153Z,1.80
2017-11-30T13:56:32.214Z,1.90
2017-11-30T13:59:00.387Z,1.90
2017-11-30T14:01:28.450Z,1.80
2017-11-30T14:03:56.266Z,1.90
2017-11-30T14:06:25.241Z,1.80
2017-11-30T14:08:53.817Z,1.80
2017-11-30T14:11:23.395Z,1.80
2017-11-30T14:13:51.685Z,1.80
2017-11-30T14:16:20.048Z,1.80
2017-11-30T14:18:48.227Z,1.80
2017-11-30T14:21:16.512Z,1.70
2017-11-30T14:23:44.881Z,1.70
2017-11-30T14:26:13.106Z,1.70
2017-11-30T14:28:42.366Z,1.70
2017-11-30T14:31:10.570Z,1.70
2017-11-30T14:33:39.516Z,1.70
2017-11-30T14:36:07.692Z,1.70
2017-11-30T14:38:36.375Z,1.70
2017-11-30T14:41:04.492Z,1.70
2017-11-30T14:43:33.953Z,1.60
2017-11-30T14:46:02.019Z,1.60
2017-11-30T14:48:30.130Z,1.70
2017-11-30T14:50:58.112Z,1.60
2017-11-30T14:53:26.846Z,1.60
2017-11-30T14:55:54.897Z,1.60
2017-11-30T14:58:23.912Z,1.60
2017-11-30T15:00:52.912Z,1.70
2017-11-30T15:03:21.282Z,1.60
2017-11-30T15:05:49.289Z,1.60
2017-11-30T15:08:18.346Z,1.60
2017-11-30T15:10:47.031Z,1.60
2017-11-30T15:13:15.448Z,1.50
2017-11-30T15:15:44.301Z,1.50
2017-11-30T15:18:13.395Z,1.50
2017-11-30T15:20:41.465Z,1.40
2017-11-30T15:23:09.435Z,1.40
2017-11-30T15:25:37.747Z,1.40
2017-11-30T15:28:06.640Z,1.40
2017-11-30T15:30:36.187Z,1.40
2017-11-30T15:33:04.180Z,1.40
2017-11-30T15:35:32.147Z,1.40
2017-11-30T15:38:00.230Z,1.40
2017-11-30T15:40:29.004Z,1.40
2017-11-30T15:42:57.531Z,1.40
2017-11-30T15:45:26.523Z,1.40
2017-11-30T15:47:55.490Z,1.40
2017-11-30T15:50:24.280Z,1.40
2017-11-30T15:52:52.376Z,1.40
2017-11-30T15:55:21.270Z,1.40
2017-11-30T15:57:50.008Z,1.30
2017-11-30T16:00:17.977Z,1.30
2017-11-30T16:02:45.999Z,1.30
2017-11-30T16:05:17.090Z,1.30
2017-11-30T16:07:45.366Z,1.30
2017-11-30T16:10:14.358Z,1.40
2017-11-30T16:12:42.452Z,1.40
2017-11-30T16:15:11.330Z,1.30
2017-11-30T16:17:40.151Z,1.30
2017-11-30T16:20:08.899Z,1.30
2017-11-30T16:22:37.006Z,1.30
2017-11-30T16:25:05.975Z,1.30
2017-11-30T16:27:34.086Z,1.30
2017-11-30T16:30:03.680Z,1.30
2017-11-30T16:32:32.575Z,1.30
2017-11-30T16:35:01.418Z,1.30
2017-11-30T16:37:29.592Z,1.30
2017-11-30T16:39:57.667Z,1.30
2017-11-30T16:42:25.774Z,1.30
2017-11-30T16:44:55.290Z,1.30
2017-11-30T16:47:24.078Z,1.30
2017-11-30T16:49:52.444Z,1.30
2017-11-30T16:52:21.495Z,1.30
2017-11-30T16:54:49.569Z,1.30
2017-11-30T16:57:17.669Z,1.30
2017-11-30T16:59:46.430Z,1.30
2017-11-30T17:02:14.641Z,1.30
2017-11-30T17:04:42.845Z,1.30
2017-11-30T17:07:10.846Z,1.30
2017-11-30T17:09:39.908Z,1.30
2017-11-30T17:12:08.424Z,1.30
2017-11-30T17:14:37.007Z,1.30
2017-11-30T17:17:05.078Z,1.30
2017-11-30T17:19:33.189Z,1.30
2017-11-30T17:22:02.852Z,1.10
2017-11-30T17:24:31.133Z,1.20
2017-11-30T17:26:59.392Z,1.20
2017-11-30T17:29:27.597Z,1.10
2017-11-30T17:31:56.478Z,1.10
2017-11-30T17:34:24.656Z,1.10
2017-11-30T17:36:53.265Z,1.10
2017-11-30T17:39:22.086Z,1.10
2017-11-30T17:41:50.646Z,1.10
2017-11-30T17:44:19.649Z,1.10
2017-11-30T17:46:48.615Z,1.10
2017-11-30T17:49:16.557Z,1.10
2017-11-30T17:51:45.032Z,1.10
2017-11-30T17:54:13.112Z,1.10
2017-11-30T17:56:41.385Z,1.00
2017-11-30T17:59:09.349Z,1.00
2017-11-30T18:01:37.729Z,1.00
2017-11-30T18:04:05.805Z,1.10
2017-11-30T18:06:33.870Z,1.10
2017-11-30T18:09:01.786Z,1.10
2017-11-30T18:11:30.532Z,1.10
2017-11-30T18:13:58.696Z,1.10
2017-11-30T18:16:26.667Z,1.10
2017-11-30T18:18:54.738Z,1.00
2017-11-30T18:21:22.912Z,1.00
2017-11-30T18:23:51.803Z,1.10
2017-11-30T18:26:20.550Z,1.10
2017-11-30T18:28:49.135Z,1.10
2017-11-30T18:31:17.241Z,1.10
2017-11-30T18:33:45.417Z,1.10
2017-11-30T18:36:13.390Z,1.10
2017-11-30T18:38:42.377Z,1.10
2017-11-30T18:41:10.348Z,1.10
2017-11-30T18:43:38.847Z,1.10
2017-11-30T18:46:07.362Z,1.10
2017-11-30T18:48:36.369Z,1.10
2017-11-30T18:51:05.960Z,1.10
2017-11-30T18:53:34.725Z,1.10
2017-11-30T18:56:03.498Z,1.10
2017-11-30T18:58:32.396Z,1.10
2017-11-30T19:01:00.585Z,1.10
2017-11-30T19:03:29.336Z,1.00
2017-11-30T19:05:57.411Z,1.00
2017-11-30T19:08:25.478Z,1.00
2017-11-30T19:10:53.298Z,1.00
2017-11-30T19:13:23.286Z,1.00
2017-11-30T19:15:51.252Z,1.00
2017-11-30T19:18:19.767Z,1.00
2017-11-30T19:20:49.279Z,1.00
2017-11-30T19:23:17.238Z,1.00
2017-11-30T19:25:45.917Z,1.00
2017-11-30T19:28:14.978Z,1.00
2017-11-30T19:30:43.257Z,0.90
2017-11-30T19:33:12.291Z,1.00
2017-11-30T19:35:40.620Z,1.00
2017-11-30T19:38:08.683Z,1.00
2017-11-30T19:40:36.649Z,0.90
2017-11-30T19:43:06.459Z,1.00
2017-11-30T19:45:35.257Z,0.90
2017-11-30T19:48:03.530Z,0.90
2017-11-30T19:50:32.622Z,0.90
2017-11-30T19:53:02.347Z,0.90
2017-11-30T19:55:30.410Z,0.90
2017-11-30T19:57:59.156Z,0.90
2017-11-30T20:00:27.116Z,0.90
2017-11-30T20:02:55.332Z,0.90
2017-11-30T20:05:23.687Z,0.80
2017-11-30T20:07:51.830Z,0.80
2017-11-30T20:10:19.850Z,0.80
2017-11-30T20:12:48.819Z,0.70
2017-11-30T20:15:16.697Z,0.70
2017-11-30T20:17:44.779Z,0.70
2017-11-30T20:20:13.108Z,0.70
2017-11-30T20:22:42.158Z,0.80
2017-11-30T20:25:10.232Z,0.80
2017-11-30T20:27:38.290Z,0.80
2017-11-30T20:30:06.444Z,0.80
2017-11-30T20:32:34.989Z,0.80
2017-11-30T20:35:04.284Z,0.80
2017-11-30T20:37:32.630Z,0.80
2017-11-30T20:40:01.327Z,0.80
2017-11-30T20:42:29.304Z,0.80
2017-11-30T20:45:01.944Z,0.90
2017-11-30T20:47:30.165Z,0.90
2017-11-30T20:49:58.312Z,0.90
2017-11-30T20:52:26.275Z,0.90
2017-11-30T20:54:54.181Z,0.90
2017-11-30T20:57:22.441Z,0.80
2017-11-30T20:59:50.418Z,0.90
2017-11-30T21:02:19.074Z,0.80
2017-11-30T21:04:47.054Z,0.80
2017-11-30T21:07:15.137Z,0.80
2017-11-30T21:09:43.554Z,0.80
2017-11-30T21:12:11.514Z,0.70
2017-11-30T21:14:39.652Z,0.70
2017-11-30T21:17:07.879Z,0.60
2017-11-30T21:19:35.917Z,0.70
2017-11-30T21:22:05.073Z,0.70
2017-11-30T21:24:33.311Z,0.70
2017-11-30T21:27:02.603Z,0.70
2017-11-30T21:29:31.690Z,0.70
2017-11-30T21:32:00.296Z,0.70
2017-11-30T21:34:29.767Z,0.60
2017-11-30T21:36:59.028Z,0.60
2017-11-30T21:39:27.420Z,0.60
2017-11-30T21:41:56.127Z,0.60
2017-11-30T21:44:25.712Z,0.50
2017-11-30T21:46:54.451Z,0.50
2017-11-30T21:49:23.849Z,0.50
2017-11-30T21:51:53.364Z,0.50
2017-11-30T21:54:21.589Z,0.50
2017-11-30T21:56:49.742Z,0.50
2017-11-30T21:59:17.995Z,0.40
2017-11-30T22:01:46.704Z,0.40
2017-11-30T22:04:14.553Z,0.40
2017-11-30T22:06:42.539Z,0.40
2017-11-30T22:09:10.635Z,0.50
2017-11-30T22:11:38.811Z,0.50
2017-11-30T22:14:06.954Z,0.40
2017-11-30T22:16:35.022Z,0.40
2017-11-30T22:19:03.138Z,0.40
2017-11-30T22:21:31.886Z,0.40
2017-11-30T22:23:59.922Z,0.40
2017-11-30T22:26:27.923Z,0.40
2017-11-30T22:28:56.299Z,0.50
2017-11-30T22:31:24.192Z,0.40
2017-11-30T22:33:52.164Z,0.40
2017-11-30T22:36:20.668Z,0.40
2017-11-30T22:38:49.330Z,0.40
2017-11-30T22:41:17.475Z,0.40
2017-11-30T22:43:45.513Z,0.40
2017-11-30T22:46:13.445Z,0.30
2017-11-30T22:48:41.481Z,0.40
2017-11-30T22:51:09.447Z,0.30
2017-11-30T22:53:37.731Z,0.30
2017-11-30T22:56:05.543Z,0.30
2017-11-30T22:58:34.228Z,0.30
2017-11-30T23:01:03.826Z,0.30
2017-11-30T23:03:32.657Z,0.30
2017-11-30T23:06:00.538Z,0.30
2017-11-30T23:08:28.594Z,0.30
2017-11-30T23:10:56.465Z,0.30
2017-11-30T23:13:24.263Z,0.40
2017-11-30T23:15:52.213Z,0.40
2017-11-30T23:18:20.082Z,0.40
2017-11-30T23:20:47.985Z,0.30
2017-11-30T23:23:16.235Z,0.40
2017-11-30T23:25:44.243Z,0.40
2017-11-30T23:28:12.090Z,0.40
2017-11-30T23:30:40.031Z,0.40
2017-11-30T23:33:07.905Z,0.30
2017-11-30T23:35:35.790Z,0.30
2017-11-30T23:38:03.650Z,0.30
2017-11-30T23:40:31.591Z,0.30
2017-11-30T23:42:59.560Z,0.40
2017-11-30T23:45:27.857Z,0.40
2017-11-30T23:47:55.832Z,0.50
2017-11-30T23:50:24.179Z,0.50
2017-11-30T23:52:52.251Z,0.50
2017-11-30T23:55:20.146Z,0.50
2017-11-30T23:57:47.934Z,0.50
